createdAt,value
2016-12-17T00:00:06.710Z,0.49
2016-12-17T00:01:07.003Z,0.61
2016-12-17T00:02:06.664Z,0.57
2016-12-17T00:03:06.648Z,0.57
2016-12-17T00:04:06.648Z,0.61
2016-12-17T00:05:06.602Z,0.62
2016-12-17T00:06:06.576Z,0.62
2016-12-17T00:07:06.868Z,0.62
2016-12-17T00:08:06.528Z,0.65
2016-12-17T00:09:06.510Z,0.71
2016-12-17T00:10:06.493Z,0.68
2016-12-17T00:11:06.467Z,0.67
2016-12-17T00:12:06.437Z,0.67
2016-12-17T00:13:06.420Z,0.72
2016-12-17T00:14:06.395Z,0.65
2016-12-17T00:15:06.392Z,0.67
2016-12-17T00:16:06.686Z,0.7
2016-12-17T00:17:06.809Z,0.78
2016-12-17T00:18:06.312Z,0.71
2016-12-17T00:19:06.295Z,0.76
2016-12-17T00:20:06.267Z,0.71
2016-12-17T00:21:06.443Z,0.82
2016-12-17T00:22:06.222Z,0.76
2016-12-17T00:23:06.198Z,0.71
2016-12-17T00:24:06.182Z,0.82
2016-12-17T00:25:06.153Z,0.8
2016-12-17T00:26:06.757Z,0.8
2016-12-17T00:27:06.105Z,0.83
2016-12-17T00:28:06.088Z,0.76
2016-12-17T00:29:06.375Z,0.83
2016-12-17T00:30:06.349Z,0.82
2016-12-17T00:31:06.015Z,0.89
2016-12-17T00:32:06.317Z,0.92
2016-12-17T00:33:05.981Z,0.79
2016-12-17T00:34:05.960Z,0.82
2016-12-17T00:35:05.932Z,0.86
2016-12-17T00:36:06.224Z,0.96
2016-12-17T00:37:05.887Z,0.83
2016-12-17T00:38:05.863Z,0.75
2016-12-17T00:39:05.851Z,0.79
2016-12-17T00:40:06.127Z,0.76
2016-12-17T00:41:05.795Z,0.79
2016-12-17T00:42:06.094Z,0.79
2016-12-17T00:43:05.759Z,0.7
2016-12-17T00:44:05.735Z,0.76
2016-12-17T00:45:06.027Z,0.67
2016-12-17T00:46:05.687Z,0.75
2016-12-17T00:47:05.732Z,0.72
2016-12-17T00:48:05.667Z,0.68
2016-12-17T00:49:05.929Z,0.75
2016-12-17T00:50:05.604Z,0.75
2016-12-17T00:51:05.606Z,0.78
2016-12-17T00:52:05.868Z,0.75
2016-12-17T00:53:05.534Z,0.7
2016-12-17T00:54:05.867Z,0.75
2016-12-17T00:55:05.499Z,0.8
2016-12-17T00:56:05.475Z,0.76
2016-12-17T00:57:05.753Z,0.88
2016-12-17T00:58:05.424Z,0.86
2016-12-17T00:59:05.713Z,0.83
2016-12-17T01:00:05.376Z,0.9
2016-12-17T01:01:05.350Z,0.86
2016-12-17T01:02:05.336Z,0.85
2016-12-17T01:03:05.309Z,0.9
2016-12-17T01:04:05.284Z,0.94
2016-12-17T01:05:05.582Z,0.9
2016-12-17T01:06:05.243Z,1.01
2016-12-17T01:07:05.221Z,0.97
2016-12-17T01:08:05.202Z,0.96
2016-12-17T01:09:05.170Z,1.04
2016-12-17T01:10:05.157Z,1.01
2016-12-17T01:11:05.138Z,1.03
2016-12-17T01:12:05.113Z,0.98
2016-12-17T01:13:05.091Z,1.04
2016-12-17T01:14:05.065Z,1.07
2016-12-17T01:15:05.054Z,1.15
2016-12-17T01:16:05.333Z,1.18
2016-12-17T01:17:05.319Z,1.18
2016-12-17T01:18:04.976Z,1.21
2016-12-17T01:19:05.293Z,1.16
2016-12-17T01:20:04.931Z,1.26
2016-12-17T01:21:04.921Z,1.21
2016-12-17T01:22:04.893Z,1.33
2016-12-17T01:23:04.876Z,1.28
2016-12-17T01:24:04.844Z,1.24
2016-12-17T01:25:05.149Z,1.37
2016-12-17T01:26:04.802Z,1.34
2016-12-17T01:27:04.783Z,1.39
2016-12-17T01:28:05.070Z,1.34
2016-12-17T01:29:04.733Z,1.36
2016-12-17T01:30:04.713Z,1.43
2016-12-17T01:31:04.691Z,1.4
2016-12-17T01:32:04.666Z,1.52
2016-12-17T01:33:04.956Z,1.5
2016-12-17T01:34:04.621Z,1.46
2016-12-17T01:35:04.603Z,1.51
2016-12-17T01:36:04.585Z,1.51
2016-12-17T01:37:04.874Z,1.51
2016-12-17T01:38:04.537Z,1.57
2016-12-17T01:39:04.515Z,1.6
2016-12-17T01:40:04.506Z,1.62
2016-12-17T01:41:04.473Z,1.58
2016-12-17T01:42:04.448Z,1.58
2016-12-17T01:43:04.429Z,1.57
2016-12-17T01:44:04.418Z,1.58
2016-12-17T01:45:04.387Z,1.65
2016-12-17T01:46:04.371Z,1.58
2016-12-17T01:47:04.360Z,1.6
2016-12-17T01:48:04.646Z,1.58
2016-12-17T01:49:04.305Z,1.57
2016-12-17T01:50:04.596Z,1.68
2016-12-17T01:51:04.579Z,1.71
2016-12-17T01:52:04.234Z,1.68
2016-12-17T01:53:04.530Z,1.69
2016-12-17T01:54:04.506Z,1.72
2016-12-17T01:55:04.176Z,1.65
2016-12-17T01:56:04.152Z,1.71
2016-12-17T01:57:04.133Z,1.72
2016-12-17T01:58:04.103Z,1.68
2016-12-17T01:59:04.080Z,1.75
2016-12-17T02:00:04.382Z,1.72
2016-12-17T02:01:04.043Z,1.64
2016-12-17T02:02:04.023Z,1.79
2016-12-17T02:03:03.995Z,1.76
2016-12-17T02:04:03.975Z,1.8
2016-12-17T02:05:03.954Z,1.87
2016-12-17T02:06:03.935Z,1.82
2016-12-17T02:07:03.912Z,1.82
2016-12-17T02:08:03.885Z,1.89
2016-12-17T02:09:03.870Z,1.89
2016-12-17T02:10:03.869Z,1.83
2016-12-17T02:11:03.834Z,1.87
2016-12-17T02:12:03.811Z,1.87
2016-12-17T02:13:03.790Z,1.8
2016-12-17T02:14:03.766Z,1.91
2016-12-17T02:15:03.741Z,1.9
2016-12-17T02:16:03.725Z,1.91
2016-12-17T02:17:03.699Z,1.93
2016-12-17T02:18:03.676Z,1.91
2016-12-17T02:19:03.655Z,1.9
2016-12-17T02:20:03.632Z,2.01
2016-12-17T02:21:04.124Z,1.93
2016-12-17T02:22:03.904Z,2.01
2016-12-17T02:23:03.578Z,2.02
2016-12-17T02:24:03.551Z,1.93
2016-12-17T02:25:03.837Z,1.99
2016-12-17T02:26:03.504Z,1.97
2016-12-17T02:27:03.493Z,2.01
2016-12-17T02:28:03.467Z,2.01
2016-12-17T02:29:03.443Z,1.94
2016-12-17T02:30:04.048Z,1.97
2016-12-17T02:31:03.710Z,2.04
2016-12-17T02:32:03.377Z,2.04
2016-12-17T02:33:03.355Z,2.01
2016-12-17T02:34:03.335Z,2.08
2016-12-17T02:35:03.632Z,2.06
2016-12-17T02:36:03.296Z,1.99
2016-12-17T02:37:03.275Z,1.98
2016-12-17T02:38:03.248Z,1.98
2016-12-17T02:39:03.225Z,1.99
2016-12-17T02:40:03.204Z,2.12
2016-12-17T02:41:03.187Z,2.12
2016-12-17T02:42:03.166Z,2.02
2016-12-17T02:43:03.456Z,2.1
2016-12-17T02:44:03.431Z,2.15
2016-12-17T02:45:03.102Z,2.23
2016-12-17T02:46:03.392Z,2.16
2016-12-17T02:47:03.061Z,2.12
2016-12-17T02:48:03.040Z,2.15
2016-12-17T02:49:03.017Z,2.09
2016-12-17T02:50:02.997Z,2.12
2016-12-17T02:51:02.978Z,2.19
2016-12-17T02:52:02.952Z,2.16
2016-12-17T02:53:02.932Z,2.19
2016-12-17T02:54:02.914Z,2.22
2016-12-17T02:55:03.203Z,2.23
2016-12-17T02:56:02.860Z,2.2
2016-12-17T02:57:03.164Z,2.2
2016-12-17T02:58:02.823Z,2.15
2016-12-17T02:59:03.121Z,2.16
2016-12-17T03:00:02.789Z,2.13
2016-12-17T03:01:02.796Z,2.2
2016-12-17T03:02:02.750Z,2.19
2016-12-17T03:03:02.744Z,2.2
2016-12-17T03:04:02.695Z,2.17
2016-12-17T03:05:02.702Z,2.23
2016-12-17T03:06:02.658Z,2.13
2016-12-17T03:07:02.632Z,2.2
2016-12-17T03:08:02.618Z,2.16
2016-12-17T03:09:02.900Z,2.15
2016-12-17T03:10:02.886Z,2.2
2016-12-17T03:11:02.576Z,2.19
2016-12-17T03:12:02.526Z,2.27
2016-12-17T03:13:02.513Z,2.19
2016-12-17T03:14:02.823Z,2.19
2016-12-17T03:15:02.469Z,2.13
2016-12-17T03:16:02.764Z,2.2
2016-12-17T03:17:02.438Z,2.26
2016-12-17T03:18:02.409Z,2.26
2016-12-17T03:19:02.383Z,2.28
2016-12-17T03:20:02.363Z,2.27
2016-12-17T03:21:02.344Z,2.22
2016-12-17T03:22:02.940Z,2.28
2016-12-17T03:23:02.302Z,2.28
2016-12-17T03:24:02.274Z,2.31
2016-12-17T03:25:02.256Z,2.3
2016-12-17T03:26:02.237Z,2.17
2016-12-17T03:27:02.217Z,2.27
2016-12-17T03:28:02.194Z,2.23
2016-12-17T03:29:02.180Z,2.3
2016-12-17T03:30:02.171Z,2.26
2016-12-17T03:31:02.127Z,2.33
2016-12-17T03:32:02.109Z,2.27
2016-12-17T03:33:02.088Z,2.31
2016-12-17T03:34:02.064Z,2.34
2016-12-17T03:35:02.043Z,2.33
2016-12-17T03:36:02.338Z,2.37
2016-12-17T03:37:02.007Z,2.33
2016-12-17T03:38:01.985Z,2.28
2016-12-17T03:39:01.995Z,2.3
2016-12-17T03:40:01.966Z,2.27
2016-12-17T03:41:01.929Z,2.33
2016-12-17T03:42:01.903Z,2.28
2016-12-17T03:43:01.903Z,2.31
2016-12-17T03:44:01.859Z,2.34
2016-12-17T03:45:01.842Z,2.38
2016-12-17T03:46:01.823Z,2.35
2016-12-17T03:47:01.796Z,2.35
2016-12-17T03:48:02.089Z,2.35
2016-12-17T03:49:01.754Z,2.34
2016-12-17T03:50:01.776Z,2.44
2016-12-17T03:51:01.713Z,2.41
2016-12-17T03:52:01.692Z,2.52
2016-12-17T03:53:01.672Z,2.51
2016-12-17T03:54:01.645Z,2.45
2016-12-17T03:55:01.939Z,2.38
2016-12-17T03:56:01.608Z,2.49
2016-12-17T03:57:01.585Z,2.45
2016-12-17T03:58:01.568Z,2.44
2016-12-17T03:59:01.542Z,2.44
2016-12-17T04:00:01.840Z,2.49
2016-12-17T04:01:02.131Z,2.44
2016-12-17T04:02:01.481Z,2.53
2016-12-17T04:03:01.466Z,2.49
2016-12-17T04:04:01.439Z,2.48
2016-12-17T04:05:01.421Z,2.48
2016-12-17T04:06:01.709Z,2.41
2016-12-17T04:07:01.374Z,2.48
2016-12-17T04:08:01.352Z,2.46
2016-12-17T04:09:01.332Z,2.49
2016-12-17T04:10:01.310Z,2.48
2016-12-17T04:11:01.294Z,2.52
2016-12-17T04:12:01.271Z,2.58
2016-12-17T04:13:01.256Z,2.51
2016-12-17T04:14:01.232Z,2.56
2016-12-17T04:15:01.213Z,2.56
2016-12-17T04:16:01.502Z,2.53
2016-12-17T04:17:01.793Z,2.55
2016-12-17T04:18:01.152Z,2.58
2016-12-17T04:19:01.127Z,2.61
2016-12-17T04:20:01.104Z,2.61
2016-12-17T04:21:01.605Z,2.69
2016-12-17T04:22:01.067Z,2.64
2016-12-17T04:23:01.041Z,2.71
2016-12-17T04:24:01.334Z,2.64
2016-12-17T04:25:01.002Z,2.69
2016-12-17T04:26:00.986Z,2.61
2016-12-17T04:27:01.277Z,2.69
2016-12-17T04:28:00.939Z,2.64
2016-12-17T04:29:00.914Z,2.63
2016-12-17T04:30:00.897Z,2.66
2016-12-17T04:31:01.193Z,2.63
2016-12-17T04:32:00.855Z,2.67
2016-12-17T04:33:01.151Z,2.69
2016-12-17T04:34:00.814Z,2.64
2016-12-17T04:35:01.120Z,2.64
2016-12-17T04:36:00.773Z,2.58
2016-12-17T04:37:00.761Z,2.63
2016-12-17T04:38:00.731Z,2.63
2016-12-17T04:39:00.719Z,2.67
2016-12-17T04:40:00.697Z,2.66
2016-12-17T04:41:00.677Z,2.59
2016-12-17T04:42:00.648Z,2.63
2016-12-17T04:43:00.646Z,2.61
2016-12-17T04:44:00.607Z,2.64
2016-12-17T04:45:00.607Z,2.64
2016-12-17T04:46:00.573Z,2.63
2016-12-17T04:47:00.547Z,2.7
2016-12-17T04:48:00.529Z,2.64
2016-12-17T04:49:00.504Z,2.67
2016-12-17T04:50:00.494Z,2.66
2016-12-17T04:51:00.519Z,2.67
2016-12-17T04:52:00.443Z,2.69
2016-12-17T04:53:00.739Z,2.69
2016-12-17T04:54:00.720Z,2.66
2016-12-17T04:55:00.711Z,2.61
2016-12-17T04:56:00.354Z,2.61
2016-12-17T04:57:00.332Z,2.64
2016-12-17T04:58:00.320Z,2.55
2016-12-17T04:59:00.303Z,2.64
2016-12-17T05:00:00.273Z,2.69
2016-12-17T05:01:00.566Z,2.67
2016-12-17T05:02:00.241Z,2.67
2016-12-17T05:03:00.221Z,2.58
2016-12-17T05:04:00.509Z,2.69
2016-12-17T05:05:00.165Z,2.67
2016-12-17T05:06:00.157Z,2.64
2016-12-17T05:07:00.441Z,2.64
2016-12-17T05:08:00.113Z,2.64
2016-12-17T05:09:00.481Z,2.66
2016-12-17T05:10:00.085Z,2.63
2016-12-17T05:11:00.053Z,2.64
2016-12-17T05:12:00.070Z,2.64
2016-12-17T05:13:00.013Z,2.69
2016-12-17T05:14:00.315Z,2.58
2016-12-17T05:14:59.967Z,2.77
2016-12-17T05:15:59.972Z,2.7
2016-12-17T05:16:59.924Z,2.73
2016-12-17T05:17:59.908Z,2.73
2016-12-17T05:19:00.223Z,2.73
2016-12-17T05:19:59.860Z,2.74
2016-12-17T05:20:59.841Z,2.67
2016-12-17T05:21:59.820Z,2.74
2016-12-17T05:22:59.795Z,2.66
2016-12-17T05:23:59.776Z,2.64
2016-12-17T05:24:59.762Z,2.77
2016-12-17T05:25:59.737Z,2.74
2016-12-17T05:26:59.718Z,2.77
2016-12-17T05:27:59.699Z,2.61
2016-12-17T05:28:59.707Z,2.73
2016-12-17T05:29:59.691Z,2.73
2016-12-17T05:30:59.632Z,2.74
2016-12-17T05:31:59.608Z,2.67
2016-12-17T05:32:59.903Z,2.7
2016-12-17T05:33:59.886Z,2.76
2016-12-17T05:34:59.553Z,2.81
2016-12-17T05:35:59.526Z,2.76
2016-12-17T05:36:59.516Z,2.71
2016-12-17T05:37:59.492Z,2.7
2016-12-17T05:38:59.463Z,2.77
2016-12-17T05:39:59.448Z,2.79
2016-12-17T05:40:59.742Z,2.76
2016-12-17T05:41:59.751Z,2.73
2016-12-17T05:42:59.391Z,2.81
2016-12-17T05:43:59.369Z,2.84
2016-12-17T05:44:59.345Z,2.77
2016-12-17T05:45:59.326Z,2.77
2016-12-17T05:46:59.335Z,2.77
2016-12-17T05:47:59.625Z,2.7
2016-12-17T05:48:59.262Z,2.84
2016-12-17T05:49:59.246Z,2.77
2016-12-17T05:50:59.220Z,2.82
2016-12-17T05:51:59.197Z,2.84
2016-12-17T05:52:59.495Z,2.76
2016-12-17T05:53:59.474Z,2.79
2016-12-17T05:54:59.136Z,2.77
2016-12-17T05:55:59.432Z,2.82
2016-12-17T05:56:59.101Z,2.81
2016-12-17T05:57:59.078Z,2.79
2016-12-17T05:58:59.056Z,2.79
2016-12-17T05:59:59.036Z,2.79
2016-12-17T06:00:59.042Z,2.82
2016-12-17T06:01:58.994Z,2.77
2016-12-17T06:02:58.976Z,2.82
2016-12-17T06:03:58.956Z,2.84
2016-12-17T06:04:58.937Z,2.85
2016-12-17T06:05:58.918Z,2.91
2016-12-17T06:06:58.893Z,2.92
2016-12-17T06:07:58.875Z,2.91
2016-12-17T06:08:59.172Z,2.92
2016-12-17T06:09:58.833Z,2.89
2016-12-17T06:10:58.813Z,2.88
2016-12-17T06:11:58.807Z,2.89
2016-12-17T06:12:58.778Z,3
2016-12-17T06:13:58.757Z,2.97
2016-12-17T06:14:58.751Z,3.02
2016-12-17T06:15:58.712Z,3
2016-12-17T06:16:59.001Z,2.97
2016-12-17T06:17:58.664Z,3
2016-12-17T06:18:58.649Z,3.02
2016-12-17T06:19:58.633Z,2.98
2016-12-17T06:20:59.008Z,3.1
2016-12-17T06:21:58.597Z,3.02
2016-12-17T06:22:58.564Z,3.05
2016-12-17T06:23:58.542Z,3.07
2016-12-17T06:24:58.522Z,3.06
2016-12-17T06:25:58.503Z,3.09
2016-12-17T06:26:58.483Z,3.06
2016-12-17T06:27:58.463Z,3.06
2016-12-17T06:28:58.443Z,3.12
2016-12-17T06:29:58.419Z,3.12
2016-12-17T06:30:58.407Z,3.09
2016-12-17T06:31:58.381Z,3.06
2016-12-17T06:32:58.701Z,3.05
2016-12-17T06:33:58.339Z,3.09
2016-12-17T06:34:58.327Z,3.09
2016-12-17T06:35:58.298Z,3.05
2016-12-17T06:36:58.474Z,3.07
2016-12-17T06:37:58.594Z,3.06
2016-12-17T06:38:58.246Z,3.18
2016-12-17T06:39:58.226Z,3.12
2016-12-17T06:40:58.231Z,3.18
2016-12-17T06:41:58.182Z,3.1
2016-12-17T06:42:58.155Z,3.21
2016-12-17T06:43:58.145Z,3.16
2016-12-17T06:44:58.120Z,3.12
2016-12-17T06:45:58.095Z,3.15
2016-12-17T06:46:58.076Z,3.09
2016-12-17T06:47:58.057Z,3.18
2016-12-17T06:48:58.354Z,3.15
2016-12-17T06:49:58.011Z,3.15
2016-12-17T06:50:58.027Z,3.13
2016-12-17T06:51:57.980Z,3.12
2016-12-17T06:52:57.957Z,3.23
2016-12-17T06:53:57.933Z,3.15
2016-12-17T06:54:57.920Z,3.2
2016-12-17T06:55:57.915Z,3.18
2016-12-17T06:56:57.873Z,3.16
2016-12-17T06:57:58.381Z,3.21
2016-12-17T06:58:58.155Z,3.21
2016-12-17T06:59:57.824Z,3.21
2016-12-17T07:00:57.809Z,3.13
2016-12-17T07:01:57.775Z,3.23
2016-12-17T07:02:58.066Z,3.25
2016-12-17T07:03:58.045Z,3.27
2016-12-17T07:04:57.712Z,3.27
2016-12-17T07:05:57.687Z,3.24
2016-12-17T07:06:57.671Z,3.24
2016-12-17T07:07:57.963Z,3.2
2016-12-17T07:08:57.632Z,3.18
2016-12-17T07:09:57.614Z,3.27
2016-12-17T07:10:57.903Z,3.27
2016-12-17T07:11:57.566Z,3.21
2016-12-17T07:12:57.551Z,3.24
2016-12-17T07:13:57.843Z,3.23
2016-12-17T07:14:57.508Z,3.24
2016-12-17T07:15:57.491Z,3.36
2016-12-17T07:16:57.467Z,3.34
2016-12-17T07:17:57.764Z,3.4
2016-12-17T07:18:57.429Z,3.4
2016-12-17T07:19:57.411Z,3.43
2016-12-17T07:20:57.391Z,3.42
2016-12-17T07:21:57.371Z,3.39
2016-12-17T07:22:57.348Z,3.39
2016-12-17T07:23:57.641Z,3.5
2016-12-17T07:24:57.309Z,3.43
2016-12-17T07:25:57.285Z,3.42
2016-12-17T07:26:57.271Z,3.44
2016-12-17T07:27:57.249Z,3.44
2016-12-17T07:28:57.227Z,3.43
2016-12-17T07:29:57.521Z,3.47
2016-12-17T07:30:57.189Z,3.49
2016-12-17T07:31:57.171Z,3.49
2016-12-17T07:32:57.156Z,3.47
2016-12-17T07:33:57.126Z,3.49
2016-12-17T07:34:57.108Z,3.49
2016-12-17T07:35:57.092Z,3.46
2016-12-17T07:36:57.098Z,3.5
2016-12-17T07:37:57.046Z,3.54
2016-12-17T07:38:57.023Z,3.49
2016-12-17T07:39:57.020Z,3.54
2016-12-17T07:40:57.321Z,3.54
2016-12-17T07:41:57.009Z,3.6
2016-12-17T07:42:56.958Z,3.57
2016-12-17T07:43:56.945Z,3.58
2016-12-17T07:44:57.227Z,3.49
2016-12-17T07:45:56.892Z,3.62
2016-12-17T07:46:56.875Z,3.6
2016-12-17T07:47:56.849Z,3.57
2016-12-17T07:48:56.832Z,3.6
2016-12-17T07:49:56.810Z,3.58
2016-12-17T07:50:56.791Z,3.54
2016-12-17T07:51:57.084Z,3.52
2016-12-17T07:52:56.771Z,3.54
2016-12-17T07:53:56.728Z,3.6
2016-12-17T07:54:57.040Z,3.54
2016-12-17T07:55:56.685Z,3.6
2016-12-17T07:56:56.670Z,3.65
2016-12-17T07:57:56.650Z,3.58
2016-12-17T07:58:56.633Z,3.61
2016-12-17T07:59:56.921Z,3.67
2016-12-17T08:00:56.587Z,3.65
2016-12-17T08:01:56.574Z,3.67
2016-12-17T08:02:56.547Z,3.65
2016-12-17T08:03:56.528Z,3.61
2016-12-17T08:04:56.509Z,3.65
2016-12-17T08:05:56.537Z,3.72
2016-12-17T08:06:56.486Z,3.75
2016-12-17T08:07:56.770Z,3.75
2016-12-17T08:08:56.432Z,3.71
2016-12-17T08:09:56.723Z,3.79
2016-12-17T08:10:56.389Z,3.75
2016-12-17T08:11:56.376Z,3.75
2016-12-17T08:12:56.990Z,3.83
2016-12-17T08:13:56.343Z,3.88
2016-12-17T08:14:56.311Z,3.82
2016-12-17T08:15:56.295Z,3.82
2016-12-17T08:16:56.584Z,3.82
2016-12-17T08:17:56.255Z,3.82
2016-12-17T08:18:56.242Z,3.8
2016-12-17T08:19:56.214Z,3.85
2016-12-17T08:20:56.196Z,3.89
2016-12-17T08:21:56.377Z,3.85
2016-12-17T08:22:56.155Z,3.96
2016-12-17T08:23:56.131Z,3.9
2016-12-17T08:24:56.122Z,3.94
2016-12-17T08:25:56.101Z,3.88
2016-12-17T08:26:56.081Z,3.94
2016-12-17T08:27:56.090Z,4
2016-12-17T08:28:56.040Z,4
2016-12-17T08:29:56.017Z,3.98
2016-12-17T08:30:56.029Z,4.03
2016-12-17T08:31:55.979Z,4.08
2016-12-17T08:32:55.959Z,4.04
2016-12-17T08:33:55.939Z,4.12
2016-12-17T08:34:55.923Z,4
2016-12-17T08:35:56.542Z,4.08
2016-12-17T08:36:55.895Z,4.03
2016-12-17T08:37:55.871Z,4.04
2016-12-17T08:38:55.846Z,4.04
2016-12-17T08:39:55.820Z,4.06
2016-12-17T08:40:55.805Z,4.08
2016-12-17T08:41:55.811Z,4.03
2016-12-17T08:42:55.765Z,4.03
2016-12-17T08:43:56.061Z,4.07
2016-12-17T08:44:55.725Z,4.06
2016-12-17T08:45:55.713Z,4.1
2016-12-17T08:46:55.686Z,4.07
2016-12-17T08:47:55.664Z,4.06
2016-12-17T08:48:55.653Z,4.04
2016-12-17T08:49:55.944Z,4.06
2016-12-17T08:50:55.921Z,4.12
2016-12-17T08:51:55.901Z,4.08
2016-12-17T08:52:55.887Z,4.08
2016-12-17T08:53:55.550Z,4.07
2016-12-17T08:54:55.532Z,4.18
2016-12-17T08:55:55.865Z,4.1
2016-12-17T08:56:55.502Z,4.1
2016-12-17T08:57:55.477Z,4.15
2016-12-17T08:58:55.772Z,4.15
2016-12-17T08:59:55.439Z,4.22
2016-12-17T09:00:55.446Z,4.24
2016-12-17T09:01:55.402Z,4.25
2016-12-17T09:02:55.381Z,4.24
2016-12-17T09:03:55.365Z,4.29
2016-12-17T09:04:55.356Z,4.36
2016-12-17T09:05:55.322Z,4.32
2016-12-17T09:06:55.653Z,4.33
2016-12-17T09:07:55.281Z,4.34
2016-12-17T09:08:55.267Z,4.36
2016-12-17T09:09:55.271Z,4.33
2016-12-17T09:10:55.268Z,4.33
2016-12-17T09:11:55.207Z,4.29
2016-12-17T09:12:55.186Z,4.37
2016-12-17T09:13:55.169Z,4.32
2016-12-17T09:14:55.465Z,4.37
2016-12-17T09:15:55.133Z,4.36
2016-12-17T09:16:55.113Z,4.39
2016-12-17T09:17:55.095Z,4.43
2016-12-17T09:18:55.096Z,4.46
2016-12-17T09:19:55.054Z,4.44
2016-12-17T09:20:55.402Z,4.54
2016-12-17T09:21:55.345Z,4.52
2016-12-17T09:22:55.000Z,4.5
2016-12-17T09:23:54.993Z,4.55
2016-12-17T09:24:54.960Z,4.61
2016-12-17T09:25:54.942Z,4.61
2016-12-17T09:26:54.922Z,4.59
2016-12-17T09:27:54.932Z,4.59
2016-12-17T09:28:54.885Z,4.65
2016-12-17T09:29:54.865Z,4.72
2016-12-17T09:30:54.843Z,4.62
2016-12-17T09:31:54.849Z,4.7
2016-12-17T09:32:54.811Z,4.7
2016-12-17T09:33:54.812Z,4.65
2016-12-17T09:34:55.090Z,4.77
2016-12-17T09:35:54.764Z,4.8
2016-12-17T09:36:55.266Z,4.76
2016-12-17T09:37:55.164Z,4.84
2016-12-17T09:38:54.719Z,4.76
2016-12-17T09:39:54.678Z,4.79
2016-12-17T09:40:54.663Z,4.84
2016-12-17T09:41:55.012Z,4.91
2016-12-17T09:42:54.944Z,4.88
2016-12-17T09:43:54.613Z,4.91
2016-12-17T09:44:54.788Z,5.04
2016-12-17T09:45:54.882Z,4.96
2016-12-17T09:46:54.555Z,4.99
2016-12-17T09:47:54.842Z,4.92
2016-12-17T09:48:54.528Z,4.96
2016-12-17T09:49:54.493Z,5.01
2016-12-17T09:50:54.793Z,5.14
2016-12-17T09:51:54.454Z,5.07
2016-12-17T09:52:54.772Z,5.12
2016-12-17T09:53:55.057Z,5.1
2016-12-17T09:54:54.398Z,5.1
2016-12-17T09:55:54.722Z,5.1
2016-12-17T09:56:54.363Z,5.17
2016-12-17T09:57:54.930Z,5.2
2016-12-17T09:58:54.325Z,5.16
2016-12-17T09:59:54.624Z,5.25
2016-12-17T10:00:54.285Z,5.16
2016-12-17T10:01:54.595Z,5.23
2016-12-17T10:02:54.251Z,5.3
2016-12-17T10:03:54.238Z,5.3
2016-12-17T10:04:54.289Z,5.25
2016-12-17T10:05:54.526Z,5.35
2016-12-17T10:06:54.179Z,5.3
2016-12-17T10:07:54.157Z,5.27
2016-12-17T10:08:54.144Z,5.35
2016-12-17T10:09:54.116Z,5.46
2016-12-17T10:10:54.104Z,5.46
2016-12-17T10:11:54.082Z,5.45
2016-12-17T10:12:54.067Z,5.43
2016-12-17T10:13:54.047Z,5.46
2016-12-17T10:14:54.340Z,5.46
2016-12-17T10:15:54.012Z,5.45
2016-12-17T10:16:53.989Z,5.45
2016-12-17T10:17:53.973Z,5.49
2016-12-17T10:18:53.962Z,5.5
2016-12-17T10:19:53.936Z,5.48
2016-12-17T10:20:54.229Z,5.6
2016-12-17T10:21:54.098Z,5.59
2016-12-17T10:22:53.883Z,5.63
2016-12-17T10:23:53.864Z,5.57
2016-12-17T10:24:53.844Z,5.67
2016-12-17T10:25:53.827Z,5.64
2016-12-17T10:26:54.124Z,5.63
2016-12-17T10:27:53.788Z,5.56
2016-12-17T10:28:54.107Z,5.66
2016-12-17T10:29:54.081Z,5.64
2016-12-17T10:30:53.745Z,5.63
2016-12-17T10:31:53.713Z,5.66
2016-12-17T10:32:53.695Z,5.66
2016-12-17T10:33:53.991Z,5.66
2016-12-17T10:34:53.666Z,5.68
2016-12-17T10:35:53.640Z,5.73
2016-12-17T10:36:53.623Z,5.71
2016-12-17T10:37:53.611Z,5.7
2016-12-17T10:38:53.585Z,5.6
2016-12-17T10:39:53.568Z,5.7
2016-12-17T10:40:53.550Z,5.7
2016-12-17T10:41:53.527Z,5.73
2016-12-17T10:42:53.829Z,5.75
2016-12-17T10:43:54.124Z,5.75
2016-12-17T10:44:53.477Z,5.82
2016-12-17T10:45:53.770Z,5.82
2016-12-17T10:46:53.442Z,5.86
2016-12-17T10:47:53.425Z,5.83
2016-12-17T10:48:53.721Z,5.89
2016-12-17T10:49:53.700Z,5.88
2016-12-17T10:50:53.372Z,5.98
2016-12-17T10:51:53.351Z,5.91
2016-12-17T10:52:53.644Z,6.03
2016-12-17T10:53:53.308Z,5.91
2016-12-17T10:54:53.296Z,5.88
2016-12-17T10:55:53.278Z,6
2016-12-17T10:56:53.583Z,6
2016-12-17T10:57:53.248Z,6
2016-12-17T10:58:53.234Z,6.03
2016-12-17T10:59:53.520Z,6.11
2016-12-17T11:00:53.238Z,6.09
2016-12-17T11:01:53.504Z,6.1
2016-12-17T11:02:53.157Z,6.09
2016-12-17T11:03:53.445Z,6.11
2016-12-17T11:04:53.121Z,6.07
2016-12-17T11:05:53.095Z,6.14
2016-12-17T11:06:53.087Z,6.16
2016-12-17T11:07:53.075Z,6.19
2016-12-17T11:08:53.048Z,6.14
2016-12-17T11:09:53.027Z,6.06
2016-12-17T11:10:53.011Z,6.1
2016-12-17T11:11:52.995Z,6.18
2016-12-17T11:12:52.974Z,6.19
2016-12-17T11:13:52.959Z,6.16
2016-12-17T11:14:52.942Z,6.18
2016-12-17T11:15:52.928Z,6.22
2016-12-17T11:16:52.915Z,6.21
2016-12-17T11:17:53.211Z,6.18
2016-12-17T11:18:53.177Z,6.21
2016-12-17T11:19:52.858Z,6.19
2016-12-17T11:20:52.833Z,6.26
2016-12-17T11:21:53.127Z,6.22
2016-12-17T11:22:53.115Z,6.19
2016-12-17T11:23:52.779Z,6.25
2016-12-17T11:24:52.761Z,6.19
2016-12-17T11:25:53.072Z,6.26
2016-12-17T11:26:52.728Z,6.28
2016-12-17T11:27:52.711Z,6.19
2016-12-17T11:28:52.710Z,6.25
2016-12-17T11:29:52.682Z,6.26
2016-12-17T11:30:52.978Z,6.3
2016-12-17T11:31:52.951Z,6.25
2016-12-17T11:32:52.935Z,6.26
2016-12-17T11:33:52.601Z,6.29
2016-12-17T11:34:52.581Z,6.32
2016-12-17T11:35:52.563Z,6.29
2016-12-17T11:36:52.544Z,6.28
2016-12-17T11:37:52.530Z,6.25
2016-12-17T11:38:53.137Z,6.33
2016-12-17T11:39:52.493Z,6.32
2016-12-17T11:40:52.785Z,6.29
2016-12-17T11:41:52.457Z,6.38
2016-12-17T11:42:52.442Z,6.33
2016-12-17T11:43:52.421Z,6.36
2016-12-17T11:44:52.404Z,6.4
2016-12-17T11:45:52.385Z,6.35
2016-12-17T11:46:52.677Z,6.47
2016-12-17T11:47:52.349Z,6.51
2016-12-17T11:48:52.329Z,6.5
2016-12-17T11:49:52.319Z,6.59
2016-12-17T11:50:52.292Z,6.62
2016-12-17T11:51:52.280Z,6.58
2016-12-17T11:52:52.257Z,6.59
2016-12-17T11:53:52.240Z,6.59
2016-12-17T11:54:52.547Z,6.54
2016-12-17T11:55:52.532Z,6.65
2016-12-17T11:56:52.520Z,6.62
2016-12-17T11:57:52.186Z,6.58
2016-12-17T11:58:52.173Z,6.59
2016-12-17T11:59:52.151Z,6.65
2016-12-17T12:00:52.441Z,6.62
2016-12-17T12:01:52.109Z,6.73
2016-12-17T12:02:52.092Z,6.61
2016-12-17T12:03:52.391Z,6.79
2016-12-17T12:04:52.063Z,6.76
2016-12-17T12:05:52.038Z,6.69
2016-12-17T12:06:52.422Z,6.63
2016-12-17T12:07:52.030Z,6.72
2016-12-17T12:08:52.320Z,6.73
2016-12-17T12:09:51.975Z,6.69
2016-12-17T12:10:51.955Z,6.71
2016-12-17T12:11:52.242Z,6.79
2016-12-17T12:12:51.920Z,6.73
2016-12-17T12:13:51.899Z,6.68
2016-12-17T12:14:51.891Z,6.72
2016-12-17T12:15:51.861Z,6.76
2016-12-17T12:16:51.855Z,6.77
2016-12-17T12:17:51.833Z,6.72
2016-12-17T12:18:51.822Z,6.72
2016-12-17T12:19:51.794Z,6.81
2016-12-17T12:20:52.094Z,6.76
2016-12-17T12:21:51.962Z,6.71
2016-12-17T12:22:51.740Z,6.81
2016-12-17T12:23:52.035Z,6.8
2016-12-17T12:24:52.016Z,6.79
2016-12-17T12:25:51.683Z,6.83
2016-12-17T12:26:51.663Z,6.79
2016-12-17T12:27:51.664Z,6.76
2016-12-17T12:28:51.633Z,6.79
2016-12-17T12:29:51.612Z,6.79
2016-12-17T12:30:51.606Z,6.8
2016-12-17T12:31:51.578Z,6.81
2016-12-17T12:32:51.877Z,6.76
2016-12-17T12:33:51.859Z,6.71
2016-12-17T12:34:51.529Z,6.73
2016-12-17T12:35:51.513Z,6.69
2016-12-17T12:36:51.493Z,6.73
2016-12-17T12:37:51.477Z,6.66
2016-12-17T12:38:51.469Z,6.72
2016-12-17T12:39:51.445Z,6.71
2016-12-17T12:40:51.474Z,6.8
2016-12-17T12:41:51.719Z,6.76
2016-12-17T12:42:51.701Z,6.66
2016-12-17T12:43:51.377Z,6.66
2016-12-17T12:44:51.346Z,6.69
2016-12-17T12:45:51.332Z,6.61
2016-12-17T12:46:51.314Z,6.58
2016-12-17T12:47:51.306Z,6.65
2016-12-17T12:48:51.287Z,6.56
2016-12-17T12:49:51.259Z,6.71
2016-12-17T12:50:51.563Z,6.63
2016-12-17T12:51:51.251Z,6.68
2016-12-17T12:52:51.736Z,6.59
2016-12-17T12:53:51.188Z,6.62
2016-12-17T12:54:51.179Z,6.58
2016-12-17T12:55:51.472Z,6.65
2016-12-17T12:56:51.139Z,6.59
2016-12-17T12:57:51.126Z,6.62
2016-12-17T12:58:51.095Z,6.62
2016-12-17T12:59:51.088Z,6.56
2016-12-17T13:00:51.072Z,6.63
2016-12-17T13:01:51.081Z,6.56
2016-12-17T13:02:51.027Z,6.62
2016-12-17T13:03:51.078Z,6.61
2016-12-17T13:04:50.992Z,6.65
2016-12-17T13:05:51.316Z,6.56
2016-12-17T13:06:50.971Z,6.65
2016-12-17T13:07:50.963Z,6.72
2016-12-17T13:08:51.237Z,6.79
2016-12-17T13:09:50.911Z,6.76
2016-12-17T13:10:50.900Z,6.77
2016-12-17T13:11:50.878Z,6.71
2016-12-17T13:12:50.852Z,6.76
2016-12-17T13:13:50.840Z,6.69
2016-12-17T13:14:50.832Z,6.76
2016-12-17T13:15:51.135Z,6.69
2016-12-17T13:16:50.792Z,6.79
2016-12-17T13:17:50.785Z,6.79
2016-12-17T13:18:51.135Z,6.73
2016-12-17T13:19:50.737Z,6.71
2016-12-17T13:20:50.727Z,6.71